createdAt,value
2022-11-14T00:00:14.036Z,14.10
2022-11-14T00:05:16.397Z,13.98
2022-11-14T00:10:18.996Z,14.02
2022-11-14T00:15:21.254Z,13.77
2022-11-14T00:20:23.615Z,13.61
2022-11-14T00:25:26.129Z,13.64
2022-11-14T00:30:28.947Z,13.56
2022-11-14T00:35:31.258Z,13.45
2022-11-14T00:40:33.457Z,13.30
2022-11-14T00:45:35.653Z,13.17
2022-11-14T00:50:38.640Z,12.99
2022-11-14T00:55:41.673Z,13.15
2022-11-14T01:00:43.964Z,13.11
2022-11-14T01:05:48.808Z,13.26
2022-11-14T01:10:51.824Z,13.09
2022-11-14T01:15:55.363Z,13.08
2022-11-14T01:20:58.338Z,13.13
2022-11-14T01:26:09.306Z,13.22
2022-11-14T01:31:15.993Z,13.10
2022-11-14T01:36:19.223Z,13.23
2022-11-14T01:41:22.250Z,13.19
2022-11-14T01:46:31.822Z,13.14
2022-11-14T01:51:42.070Z,13.12
2022-11-14T01:56:49.955Z,13.14
2022-11-14T02:01:54.145Z,13.12
2022-11-14T02:07:00.035Z,12.94
2022-11-14T02:12:05.527Z,12.86
2022-11-14T02:17:28.365Z,13.00
2022-11-14T02:22:30.625Z,13.00
2022-11-14T02:27:35.184Z,13.15
2022-11-14T02:33:08.854Z,12.85
2022-11-14T02:37:59.834Z,13.02
2022-11-14T02:43:02.121Z,13.06
2022-11-14T02:48:04.646Z,13.09
2022-11-14T02:53:06.836Z,13.11
2022-11-14T02:58:09.374Z,12.99
2022-11-14T03:03:11.907Z,12.82
2022-11-14T03:08:14.092Z,13.16
2022-11-14T03:13:16.330Z,13.08
2022-11-14T03:18:18.492Z,13.11
2022-11-14T03:23:20.655Z,13.00
2022-11-14T03:28:22.806Z,13.03
2022-11-14T03:33:25.397Z,12.96
2022-11-14T03:38:27.906Z,12.77
2022-11-14T03:43:34.706Z,13.03
2022-11-14T03:48:37.007Z,13.04
2022-11-14T03:53:39.170Z,12.92
2022-11-14T03:58:41.507Z,12.74
2022-11-14T04:03:43.688Z,12.74
2022-11-14T04:08:45.873Z,12.83
2022-11-14T04:13:48.070Z,12.80
2022-11-14T04:18:50.435Z,12.70
2022-11-14T04:23:52.635Z,12.81
2022-11-14T04:28:55.056Z,12.80
2022-11-14T04:33:57.435Z,12.76
2022-11-14T04:38:59.955Z,12.69
2022-11-14T04:44:02.877Z,12.79
2022-11-14T04:49:05.269Z,12.72
2022-11-14T04:54:07.447Z,12.63
2022-11-14T04:59:09.657Z,12.58
2022-11-14T05:04:12.002Z,12.72
2022-11-14T05:09:14.219Z,12.62
2022-11-14T05:14:16.676Z,12.76
2022-11-14T05:19:18.896Z,12.75
2022-11-14T05:24:21.128Z,12.43
2022-11-14T05:29:23.342Z,12.41
2022-11-14T05:34:26.055Z,12.74
2022-11-14T05:39:30.911Z,12.53
2022-11-14T05:44:33.208Z,12.55
2022-11-14T05:49:35.409Z,12.57
2022-11-14T05:54:37.896Z,12.68
2022-11-14T05:59:40.117Z,12.65
2022-11-14T06:04:42.427Z,12.74
2022-11-14T06:09:44.645Z,12.69
2022-11-14T06:14:46.821Z,12.68
2022-11-14T06:19:49.018Z,12.74
2022-11-14T06:24:51.386Z,12.69
2022-11-14T06:29:53.649Z,12.70
2022-11-14T06:34:55.876Z,12.80
2022-11-14T06:39:58.111Z,12.92
2022-11-14T06:45:00.337Z,12.76
2022-11-14T06:50:02.514Z,12.70
2022-11-14T06:55:05.055Z,12.95
2022-11-14T07:00:08.089Z,12.98
2022-11-14T07:05:10.457Z,12.73
2022-11-14T07:10:12.838Z,12.83
2022-11-14T07:15:15.196Z,13.14
2022-11-14T07:20:18.902Z,13.08
2022-11-14T07:25:23.230Z,13.15
2022-11-14T07:30:25.466Z,13.19
2022-11-14T07:35:28.004Z,13.32
2022-11-14T07:40:30.724Z,13.41
2022-11-14T07:45:33.442Z,13.37
2022-11-14T07:50:35.802Z,13.54
2022-11-14T07:55:39.196Z,13.37
2022-11-14T08:00:41.468Z,13.68
2022-11-14T08:05:43.770Z,13.56
2022-11-14T08:10:46.009Z,13.78
2022-11-14T08:15:48.178Z,13.83
2022-11-14T08:20:59.597Z,13.92
2022-11-14T08:26:01.883Z,13.83
2022-11-14T08:31:05.247Z,14.15
2022-11-14T08:36:08.195Z,13.94
2022-11-14T08:41:10.477Z,14.14
2022-11-14T08:46:12.825Z,14.28
2022-11-14T08:51:15.069Z,14.45
2022-11-14T08:56:17.481Z,14.52
2022-11-14T09:01:19.837Z,14.74
2022-11-14T09:06:22.196Z,14.93
2022-11-14T09:11:24.656Z,15.23
2022-11-14T09:16:26.896Z,15.37
2022-11-14T09:21:29.209Z,15.33
2022-11-14T09:26:31.432Z,15.48
2022-11-14T09:31:33.719Z,15.56
2022-11-14T09:36:36.101Z,15.57
2022-11-14T09:41:44.019Z,15.70
2022-11-14T09:46:50.755Z,15.27
2022-11-14T09:52:01.747Z,15.45
2022-11-14T09:57:04.037Z,15.31
2022-11-14T10:02:20.720Z,15.42
2022-11-14T10:07:25.537Z,15.47
2022-11-14T10:12:38.260Z,15.28
2022-11-14T10:17:45.971Z,15.57
2022-11-14T10:23:15.741Z,15.77
2022-11-14T10:28:17.913Z,15.95
2022-11-14T10:33:51.610Z,15.81
2022-11-14T10:39:05.799Z,15.67
2022-11-14T10:44:16.474Z,15.61
2022-11-14T10:49:22.037Z,15.60
2022-11-14T10:54:42.589Z,15.58
2022-11-14T10:59:44.983Z,15.66
2022-11-14T11:04:47.434Z,15.83
2022-11-14T11:10:18.725Z,16.24
2022-11-14T11:15:44.091Z,16.29
2022-11-14T11:21:03.725Z,16.30
2022-11-14T11:26:26.695Z,16.62
2022-11-14T11:31:29.204Z,16.61
2022-11-14T11:36:41.414Z,16.94
2022-11-14T11:47:16.088Z,16.99
2022-11-14T11:52:30.599Z,17.31
2022-11-14T11:57:55.715Z,17.28
2022-11-14T12:02:59.505Z,17.35
2022-11-14T12:08:10.002Z,17.47
2022-11-14T12:13:24.353Z,17.52
2022-11-14T12:18:54.624Z,17.52
2022-11-14T12:24:15.306Z,17.60
2022-11-14T12:29:36.255Z,17.78
2022-11-14T12:34:42.618Z,17.88
2022-11-14T12:40:00.262Z,18.02
2022-11-14T12:45:02.651Z,18.22
2022-11-14T12:50:25.942Z,18.32
2022-11-14T12:55:48.489Z,18.37
2022-11-14T13:00:50.811Z,18.44
2022-11-14T13:06:01.793Z,18.42
2022-11-14T13:11:53.396Z,18.59
2022-11-14T13:17:37.392Z,18.56
2022-11-14T13:22:42.104Z,18.51
2022-11-14T13:33:07.792Z,18.95
2022-11-14T13:38:25.841Z,19.19
2022-11-14T13:43:43.555Z,19.35
2022-11-14T13:49:05.800Z,19.35
2022-11-14T13:54:17.460Z,19.31
2022-11-14T13:59:41.743Z,19.57
2022-11-14T14:05:04.826Z,19.72
2022-11-14T14:10:16.397Z,19.64
2022-11-14T14:15:27.734Z,19.92
2022-11-14T14:20:48.100Z,19.85
2022-11-14T14:26:25.899Z,19.99
2022-11-14T14:31:37.573Z,19.79
2022-11-14T14:36:50.953Z,19.41
2022-11-14T14:41:55.951Z,19.08
2022-11-14T14:46:58.897Z,18.76
2022-11-14T14:52:01.186Z,18.30
2022-11-14T14:57:03.907Z,18.09
2022-11-14T15:02:16.891Z,17.85
2022-11-14T15:07:25.400Z,17.66
2022-11-14T15:12:31.110Z,17.36
2022-11-14T15:17:35.998Z,17.24
2022-11-14T15:22:39.727Z,16.92
2022-11-14T15:27:50.683Z,16.86
2022-11-14T15:32:55.834Z,16.64
2022-11-14T15:38:43.597Z,16.52
2022-11-14T15:43:46.233Z,16.12
2022-11-14T15:48:48.453Z,16.24
2022-11-14T15:53:52.414Z,15.81
2022-11-14T15:58:54.916Z,15.68
2022-11-14T16:03:59.007Z,15.77
2022-11-14T16:09:01.222Z,15.66
2022-11-14T16:14:03.476Z,15.65
2022-11-14T16:19:07.268Z,15.42
2022-11-14T16:24:19.510Z,15.36
2022-11-14T16:29:21.849Z,15.23
2022-11-14T16:34:27.901Z,15.25
2022-11-14T16:39:30.492Z,15.17
2022-11-14T16:44:38.990Z,14.95
2022-11-14T16:49:44.101Z,14.80
2022-11-14T16:54:46.806Z,14.88
2022-11-14T16:59:49.017Z,14.92
2022-11-14T17:04:51.744Z,14.84
2022-11-14T17:09:53.901Z,14.59
2022-11-14T17:14:56.190Z,14.51
2022-11-14T17:19:58.602Z,14.65
2022-11-14T17:25:00.969Z,14.42
2022-11-14T17:30:03.175Z,14.50
2022-11-14T17:35:06.062Z,14.49
2022-11-14T17:40:14.199Z,14.44
2022-11-14T17:45:17.568Z,14.43
2022-11-14T17:50:19.907Z,14.37
2022-11-14T17:55:22.092Z,14.44
2022-11-14T18:00:24.365Z,14.14
2022-11-14T18:05:26.708Z,14.15
2022-11-14T18:10:28.900Z,14.10
2022-11-14T18:15:32.617Z,14.04
2022-11-14T18:20:38.008Z,13.95
2022-11-14T18:25:40.177Z,14.06
2022-11-14T18:30:43.738Z,13.99
2022-11-14T18:35:56.911Z,13.86
2022-11-14T18:41:03.910Z,13.87
2022-11-14T18:46:07.883Z,13.48
2022-11-14T18:51:31.259Z,13.67
2022-11-14T18:56:33.511Z,13.64
2022-11-14T19:01:36.374Z,13.69
2022-11-14T19:06:41.214Z,13.68
2022-11-14T19:12:02.449Z,13.64
2022-11-14T19:17:07.430Z,13.38
2022-11-14T19:22:09.701Z,13.37
2022-11-14T19:27:12.001Z,13.45
2022-11-14T19:32:14.316Z,13.46
2022-11-14T19:37:16.660Z,13.12
2022-11-14T19:42:19.192Z,13.25
2022-11-14T19:47:21.389Z,13.45
2022-11-14T19:52:23.750Z,13.33
2022-11-14T19:57:25.963Z,13.24
2022-11-14T20:02:30.010Z,13.27
2022-11-14T20:07:33.478Z,13.19
2022-11-14T20:12:36.049Z,13.09
2022-11-14T20:17:38.293Z,13.13
2022-11-14T20:22:40.677Z,13.18
2022-11-14T20:27:42.906Z,12.93
2022-11-14T20:32:45.106Z,12.99
2022-11-14T20:37:47.997Z,12.96
2022-11-14T20:42:50.621Z,12.94
2022-11-14T20:47:54.162Z,12.87
2022-11-14T20:52:56.563Z,12.69
2022-11-14T20:57:58.992Z,12.43
2022-11-14T21:03:01.222Z,12.72
2022-11-14T21:08:03.503Z,12.62
2022-11-14T21:13:27.467Z,12.71
2022-11-14T21:18:30.253Z,12.63
2022-11-14T21:23:33.016Z,12.18
2022-11-14T21:28:38.331Z,12.56
2022-11-14T21:33:40.672Z,12.44
2022-11-14T21:38:43.143Z,12.28
2022-11-14T21:43:46.257Z,12.30
2022-11-14T21:48:49.942Z,12.44
2022-11-14T21:53:55.891Z,12.24
2022-11-14T21:59:14.660Z,11.95
2022-11-14T22:04:16.976Z,12.07
2022-11-14T22:09:19.365Z,11.95
2022-11-14T22:14:21.615Z,11.77
2022-11-14T22:19:24.744Z,11.65
2022-11-14T22:24:26.957Z,11.97
2022-11-14T22:29:29.355Z,11.84
2022-11-14T22:34:31.560Z,11.96
2022-11-14T22:39:33.770Z,11.85
2022-11-14T22:44:35.958Z,11.71
2022-11-14T22:49:38.151Z,11.40
2022-11-14T22:54:40.315Z,11.68
2022-11-14T22:59:42.545Z,11.54
2022-11-14T23:04:44.753Z,11.41
2022-11-14T23:09:46.952Z,11.57
2022-11-14T23:14:49.306Z,11.68
2022-11-14T23:19:51.494Z,11.50
2022-11-14T23:24:53.725Z,11.22
2022-11-14T23:29:56.059Z,11.22
2022-11-14T23:34:58.250Z,11.42
2022-11-14T23:40:00.632Z,11.35
2022-11-14T23:45:03.205Z,11.36
2022-11-14T23:50:05.657Z,11.23
2022-11-14T23:55:08.162Z,11.33
